Airport View

Enter AWOS ICAO identifier for current METAR.

ex. KFNL

KICT 111853Z 20014KT 10SM FEW250 09/M05 A3033 RMK AO2 SLP280 T00941050

11 Dec 2019 19:47

Phone: 316-945-8022

Other Area AWOS: KIAB - KBEC - KAAO - K1K1

TAF KICT 111734Z 1118/1218 20015G22KT P6SM SKC FM120300 17015KT P6SM SCT250 WS020/20045KT FM121200 19016G24KT P6SM BKN025 WS020/22045KT FM121500 19015G23KT P6SM SCT035